createdAt,value
2018-06-16T00:01:42.356Z,20.17
2018-06-16T00:04:10.781Z,19.97
2018-06-16T00:06:39.115Z,16.57
2018-06-16T00:09:07.869Z,19.37
2018-06-16T00:11:36.673Z,18.40
2018-06-16T00:14:05.132Z,17.97
2018-06-16T00:16:33.538Z,16.80
2018-06-16T00:19:02.052Z,16.90
2018-06-16T00:21:30.384Z,18.23
2018-06-16T00:23:59.001Z,17.57
2018-06-16T00:26:27.447Z,17.13
2018-06-16T00:28:56.269Z,15.10
2018-06-16T00:31:24.767Z,18.03
2018-06-16T00:33:53.485Z,17.93
2018-06-16T00:36:21.972Z,20.37
2018-06-16T00:38:50.423Z,17.53
2018-06-16T00:41:19.084Z,20.03
2018-06-16T00:43:47.676Z,19.00
2018-06-16T00:46:16.144Z,17.07
2018-06-16T00:48:44.766Z,18.67
2018-06-16T00:51:13.253Z,16.00
2018-06-16T00:53:41.986Z,18.70
2018-06-16T00:56:10.508Z,22.50
2018-06-16T00:58:39.087Z,21.20
2018-06-16T01:01:07.461Z,17.80
2018-06-16T01:03:35.708Z,15.87
2018-06-16T01:06:04.043Z,20.53
2018-06-16T01:08:32.288Z,20.73
2018-06-16T01:11:00.558Z,20.70
2018-06-16T01:13:29.007Z,19.10
2018-06-16T01:15:57.231Z,21.23
2018-06-16T01:18:25.576Z,21.07
2018-06-16T01:20:53.871Z,19.90
2018-06-16T01:23:22.234Z,21.20
2018-06-16T01:25:50.640Z,22.23
2018-06-16T01:28:19.002Z,19.50
2018-06-16T01:30:47.352Z,22.30
2018-06-16T01:33:15.691Z,20.20
2018-06-16T01:35:44.068Z,21.27
2018-06-16T01:38:12.445Z,21.77
2018-06-16T01:40:40.864Z,22.87
2018-06-16T01:43:09.098Z,25.77
2018-06-16T01:45:37.470Z,19.43
2018-06-16T01:48:05.714Z,24.83
2018-06-16T01:50:34.027Z,24.17
2018-06-16T01:53:02.435Z,25.83
2018-06-16T01:55:30.629Z,23.60
2018-06-16T01:57:58.953Z,21.07
2018-06-16T02:00:27.491Z,24.53
2018-06-16T02:02:55.846Z,24.43
2018-06-16T02:05:24.131Z,27.97
2018-06-16T02:07:52.385Z,25.70
2018-06-16T02:10:20.726Z,23.40
2018-06-16T02:12:49.117Z,25.33
2018-06-16T02:15:17.332Z,25.47
2018-06-16T02:17:45.649Z,21.90
2018-06-16T02:20:14.002Z,24.87
2018-06-16T02:22:42.374Z,22.70
2018-06-16T02:25:11.609Z,27.77
2018-06-16T02:27:39.946Z,24.37
2018-06-16T02:30:08.269Z,21.53
2018-06-16T02:32:36.645Z,21.60
2018-06-16T02:35:04.967Z,21.77
2018-06-16T02:37:33.305Z,23.60
2018-06-16T02:40:01.699Z,22.00
2018-06-16T02:42:29.946Z,25.53
2018-06-16T02:44:58.308Z,25.87
2018-06-16T02:47:27.549Z,25.40
2018-06-16T02:49:55.795Z,22.53
2018-06-16T02:52:24.068Z,22.47
2018-06-16T02:54:52.435Z,23.87
2018-06-16T02:57:20.800Z,24.43
2018-06-16T02:59:49.031Z,21.13
2018-06-16T03:02:17.375Z,24.40
2018-06-16T03:04:45.607Z,22.20
2018-06-16T03:07:13.935Z,22.53
2018-06-16T03:09:42.412Z,22.47
2018-06-16T03:12:10.628Z,21.50
2018-06-16T03:14:39.001Z,24.73
2018-06-16T03:17:07.333Z,23.07
2018-06-16T03:19:35.578Z,20.87
2018-06-16T03:22:03.913Z,22.10
2018-06-16T03:24:32.148Z,23.53
2018-06-16T03:27:00.480Z,28.20
2018-06-16T03:29:28.762Z,26.30
2018-06-16T03:31:57.105Z,27.03
2018-06-16T03:34:25.506Z,23.20
2018-06-16T03:36:53.858Z,23.27
2018-06-16T03:39:22.183Z,25.87
2018-06-16T03:41:50.477Z,25.57
2018-06-16T03:44:18.792Z,24.80
2018-06-16T03:46:47.087Z,22.57
2018-06-16T03:49:15.314Z,22.10
2018-06-16T03:51:43.642Z,23.50
2018-06-16T03:54:11.973Z,24.30
2018-06-16T03:56:40.312Z,21.77
2018-06-16T03:59:08.572Z,23.83
2018-06-16T04:01:36.937Z,21.93
2018-06-16T04:04:05.266Z,21.50
2018-06-16T04:06:33.586Z,19.87
2018-06-16T04:09:01.957Z,19.27
2018-06-16T04:11:30.331Z,24.60
2018-06-16T04:13:58.674Z,20.43
2018-06-16T04:16:27.014Z,18.93
2018-06-16T04:18:55.357Z,19.33
2018-06-16T04:21:23.736Z,18.57
2018-06-16T04:23:52.027Z,19.30
2018-06-16T04:26:20.391Z,19.83
2018-06-16T04:28:48.725Z,17.90
2018-06-16T04:31:16.954Z,16.00
2018-06-16T04:33:45.333Z,18.50
2018-06-16T04:36:13.721Z,18.43
2018-06-16T04:38:42.062Z,17.37
2018-06-16T04:41:10.406Z,16.23
2018-06-16T04:43:38.625Z,15.60
2018-06-16T04:46:06.840Z,15.70
2018-06-16T04:48:35.209Z,16.00
2018-06-16T04:51:03.486Z,15.37
2018-06-16T04:53:31.680Z,16.70
2018-06-16T04:56:00.039Z,16.40
2018-06-16T04:58:28.302Z,12.07
2018-06-16T05:00:56.706Z,14.40
2018-06-16T05:03:25.056Z,15.17
2018-06-16T05:05:53.333Z,16.60
2018-06-16T05:08:21.582Z,12.47
2018-06-16T05:10:50.858Z,14.93
2018-06-16T05:13:19.169Z,12.70
2018-06-16T05:15:47.510Z,12.60
2018-06-16T05:18:15.791Z,12.13
2018-06-16T05:20:44.166Z,11.90
2018-06-16T05:23:12.458Z,10.87
2018-06-16T05:25:40.861Z,14.43
2018-06-16T05:28:09.173Z,11.10
2018-06-16T05:30:37.553Z,12.70
2018-06-16T05:33:05.921Z,12.47
2018-06-16T05:35:34.379Z,11.57
2018-06-16T05:38:02.705Z,10.53
2018-06-16T05:40:31.086Z,9.67
2018-06-16T05:42:59.357Z,11.10
2018-06-16T05:45:27.609Z,10.57
2018-06-16T05:47:55.955Z,9.80
2018-06-16T05:50:24.403Z,13.20
2018-06-16T05:52:52.685Z,11.70
2018-06-16T05:55:21.056Z,10.87
2018-06-16T05:57:49.498Z,11.03
2018-06-16T06:00:17.874Z,11.47
2018-06-16T06:02:46.314Z,11.40
2018-06-16T06:05:14.538Z,9.97
2018-06-16T06:07:42.919Z,10.40
2018-06-16T06:10:11.245Z,10.70
2018-06-16T06:12:39.630Z,11.00
2018-06-16T06:15:08.011Z,9.30
2018-06-16T06:17:36.228Z,8.30
2018-06-16T06:20:04.570Z,10.47
2018-06-16T06:22:35.045Z,9.50
2018-06-16T06:25:03.290Z,9.43
2018-06-16T06:27:31.683Z,8.07
2018-06-16T06:30:00.091Z,9.60
2018-06-16T06:32:28.498Z,10.30
2018-06-16T06:34:56.797Z,8.53
2018-06-16T06:37:25.171Z,7.87
2018-06-16T06:39:53.485Z,8.20
2018-06-16T06:42:21.893Z,9.77
2018-06-16T06:44:50.189Z,6.60
2018-06-16T06:47:18.637Z,8.80
2018-06-16T06:49:47.009Z,7.57
2018-06-16T06:52:15.377Z,7.90
2018-06-16T06:54:43.725Z,6.77
2018-06-16T06:57:13.057Z,8.90
2018-06-16T06:59:41.423Z,7.60
2018-06-16T07:02:09.859Z,8.47
2018-06-16T07:04:38.332Z,9.40
2018-06-16T07:07:06.848Z,7.37
2018-06-16T07:09:35.224Z,7.53
2018-06-16T07:12:03.630Z,9.73
2018-06-16T07:14:32.099Z,8.90
2018-06-16T07:17:00.512Z,6.00
2018-06-16T07:19:28.888Z,7.33
2018-06-16T07:21:57.374Z,7.10
2018-06-16T07:24:26.665Z,7.73
2018-06-16T07:26:54.925Z,8.07
2018-06-16T07:29:23.179Z,7.10
2018-06-16T07:31:51.522Z,7.83
2018-06-16T07:34:19.908Z,7.57
2018-06-16T07:36:48.190Z,8.13
2018-06-16T07:39:16.497Z,7.67
2018-06-16T07:41:45.790Z,7.03
2018-06-16T07:44:14.205Z,7.80
2018-06-16T07:46:42.511Z,8.10
2018-06-16T07:49:10.868Z,7.87
2018-06-16T07:51:39.091Z,7.07
2018-06-16T07:54:07.345Z,7.50
2018-06-16T07:56:35.626Z,8.57
2018-06-16T07:59:04.379Z,7.77
2018-06-16T08:01:32.903Z,8.70
2018-06-16T08:04:01.248Z,6.30
2018-06-16T08:06:29.717Z,8.30
2018-06-16T08:08:58.056Z,7.60
2018-06-16T08:11:26.357Z,8.00
2018-06-16T08:13:55.167Z,8.10
2018-06-16T08:16:23.528Z,7.40
2018-06-16T08:18:52.033Z,7.37
2018-06-16T08:21:20.416Z,8.03
2018-06-16T08:23:48.774Z,8.03
2018-06-16T08:26:17.155Z,6.50
2018-06-16T08:28:45.580Z,7.70
2018-06-16T08:31:13.907Z,6.83
2018-06-16T08:33:42.290Z,9.10
2018-06-16T08:36:10.567Z,10.23
2018-06-16T08:38:39.016Z,10.97
2018-06-16T08:41:07.263Z,9.27
2018-06-16T08:43:35.581Z,10.00
2018-06-16T08:46:03.960Z,8.90
2018-06-16T08:48:32.311Z,7.23
2018-06-16T08:51:00.669Z,9.13
2018-06-16T08:53:29.062Z,8.80
2018-06-16T08:55:57.427Z,9.57
2018-06-16T08:58:25.878Z,10.47
2018-06-16T09:00:54.150Z,7.80
2018-06-16T09:03:22.450Z,8.10
2018-06-16T09:05:50.699Z,11.50
2018-06-16T09:08:18.983Z,9.00
2018-06-16T09:10:47.321Z,8.30
2018-06-16T09:13:15.756Z,7.90
2018-06-16T09:15:44.210Z,10.57
2018-06-16T09:18:12.531Z,11.17
2018-06-16T09:20:41.123Z,8.40
2018-06-16T09:23:09.497Z,6.90
2018-06-16T09:25:37.814Z,8.17
2018-06-16T09:28:06.269Z,6.47
2018-06-16T09:30:34.550Z,7.37
2018-06-16T09:33:02.912Z,7.77
2018-06-16T09:35:31.375Z,8.57
2018-06-16T09:37:59.740Z,8.30
2018-06-16T09:40:28.091Z,10.03
2018-06-16T09:42:56.492Z,8.77
2018-06-16T09:45:25.917Z,8.27
2018-06-16T09:47:54.294Z,8.70
2018-06-16T09:50:22.543Z,7.87
2018-06-16T09:52:50.942Z,8.93
2018-06-16T09:55:19.291Z,6.30
2018-06-16T09:57:47.599Z,8.43
2018-06-16T10:00:21.343Z,9.20
2018-06-16T10:02:49.718Z,7.90
2018-06-16T10:05:18.076Z,9.13
2018-06-16T10:07:46.413Z,9.77
2018-06-16T10:10:16.284Z,10.63
2018-06-16T10:12:44.647Z,7.27
2018-06-16T10:15:13.024Z,10.40
2018-06-16T10:17:42.197Z,10.00
2018-06-16T10:20:10.614Z,7.40
2018-06-16T10:22:38.995Z,7.80
2018-06-16T10:25:07.504Z,6.97
2018-06-16T10:27:35.912Z,8.63
2018-06-16T10:30:04.403Z,6.70
2018-06-16T10:32:32.811Z,8.17
2018-06-16T10:35:01.136Z,7.23
2018-06-16T10:37:29.522Z,6.80
2018-06-16T10:39:57.910Z,7.10
2018-06-16T10:42:26.169Z,8.10
2018-06-16T10:44:54.465Z,5.70
2018-06-16T10:47:22.786Z,6.67
2018-06-16T10:49:51.794Z,6.10
2018-06-16T10:52:20.086Z,6.30
2018-06-16T10:54:51.674Z,5.40
2018-06-16T10:57:19.906Z,5.77
2018-06-16T10:59:48.230Z,4.90
2018-06-16T11:02:17.582Z,4.63
2018-06-16T11:04:46.015Z,5.17
2018-06-16T11:07:14.374Z,5.40
2018-06-16T11:09:42.672Z,5.10
2018-06-16T11:12:11.141Z,6.57
2018-06-16T11:14:39.402Z,5.70
2018-06-16T11:17:07.729Z,4.20
2018-06-16T11:19:36.128Z,3.87
2018-06-16T11:22:04.374Z,5.70
2018-06-16T11:24:32.961Z,3.60
2018-06-16T11:27:01.303Z,5.60
2018-06-16T11:29:29.714Z,4.63
2018-06-16T11:31:58.043Z,5.17
2018-06-16T11:34:26.459Z,4.53
2018-06-16T11:36:54.837Z,4.60
2018-06-16T11:39:23.586Z,4.97
2018-06-16T11:41:51.888Z,6.30
2018-06-16T11:44:20.163Z,4.93
2018-06-16T11:46:48.453Z,4.50
2018-06-16T11:49:16.811Z,5.20
2018-06-16T11:51:45.100Z,3.43
2018-06-16T11:54:13.486Z,4.40
2018-06-16T11:56:41.910Z,3.80
2018-06-16T11:59:10.314Z,4.83
2018-06-16T12:01:39.608Z,4.10
2018-06-16T12:04:07.991Z,4.27
2018-06-16T12:06:37.298Z,3.80
2018-06-16T12:09:07.441Z,4.43
2018-06-16T12:11:35.774Z,4.20
2018-06-16T12:14:08.438Z,4.23
2018-06-16T12:16:37.071Z,3.97
2018-06-16T12:19:05.539Z,4.03
2018-06-16T12:21:33.971Z,4.23
2018-06-16T12:24:02.352Z,5.33
2018-06-16T12:26:30.771Z,4.07
2018-06-16T12:28:59.124Z,4.00
2018-06-16T12:31:27.510Z,4.97
2018-06-16T12:33:55.817Z,4.67
2018-06-16T12:36:24.206Z,4.50
2018-06-16T12:38:52.580Z,3.57
2018-06-16T12:41:20.993Z,4.10
2018-06-16T12:43:49.261Z,4.10
2018-06-16T12:46:17.572Z,4.87
2018-06-16T12:48:45.846Z,4.60
2018-06-16T12:51:14.177Z,4.50
2018-06-16T12:53:42.430Z,3.10
2018-06-16T12:56:10.740Z,5.90
2018-06-16T12:58:39.019Z,3.80
2018-06-16T13:01:07.466Z,3.87
2018-06-16T13:03:35.788Z,3.67
2018-06-16T13:06:04.116Z,4.20
2018-06-16T13:08:33.342Z,4.07
2018-06-16T13:11:01.806Z,5.40
2018-06-16T13:13:30.259Z,4.80
2018-06-16T13:15:58.670Z,4.60
2018-06-16T13:18:26.925Z,4.40
2018-06-16T13:20:55.323Z,3.83
2018-06-16T13:23:23.575Z,3.40
2018-06-16T13:25:51.974Z,4.83
2018-06-16T13:28:20.287Z,3.90
2018-06-16T13:30:48.632Z,4.77
2018-06-16T13:33:17.957Z,3.70
2018-06-16T13:35:46.323Z,4.23
2018-06-16T13:38:14.726Z,4.50
2018-06-16T13:40:43.893Z,3.97
2018-06-16T13:43:12.342Z,4.37
2018-06-16T13:45:40.738Z,4.73
2018-06-16T13:48:09.041Z,4.90
2018-06-16T13:50:37.326Z,3.60
2018-06-16T13:53:05.726Z,3.70
2018-06-16T13:55:34.067Z,3.93
2018-06-16T13:58:02.462Z,4.27
2018-06-16T14:00:30.901Z,3.00
2018-06-16T14:03:00.280Z,5.20
2018-06-16T14:05:28.554Z,4.57
2018-06-16T14:07:57.005Z,3.53
2018-06-16T14:10:25.380Z,3.70
2018-06-16T14:12:53.784Z,4.23
2018-06-16T14:15:22.137Z,3.60
2018-06-16T14:17:50.561Z,3.70
2018-06-16T14:20:18.947Z,4.60
2018-06-16T14:22:47.208Z,4.57
2018-06-16T14:25:15.545Z,4.57
2018-06-16T14:27:43.963Z,4.77
2018-06-16T14:30:12.347Z,4.27
2018-06-16T14:32:40.694Z,4.27
2018-06-16T14:35:09.042Z,3.55
2018-06-16T14:37:37.458Z,5.08
2018-06-16T14:40:05.790Z,4.10
2018-06-16T14:42:34.271Z,4.22
2018-06-16T14:45:02.839Z,3.72
2018-06-16T14:47:31.147Z,4.15
2018-06-16T14:49:59.414Z,4.12
2018-06-16T14:52:27.802Z,3.77
2018-06-16T14:54:56.191Z,3.52
2018-06-16T14:57:24.563Z,3.50
2018-06-16T14:59:52.934Z,4.25
2018-06-16T15:02:21.302Z,3.50
2018-06-16T15:04:49.610Z,3.72
2018-06-16T15:07:17.896Z,3.90
2018-06-16T15:09:46.153Z,3.90
2018-06-16T15:12:14.513Z,3.83
2018-06-16T15:14:42.896Z,3.62
2018-06-16T15:17:11.261Z,3.50
2018-06-16T15:19:39.649Z,3.77
2018-06-16T15:22:07.922Z,3.47
2018-06-16T15:24:36.374Z,3.53
2018-06-16T15:27:04.727Z,3.23
2018-06-16T15:29:32.984Z,3.30
2018-06-16T15:32:01.308Z,3.40
2018-06-16T15:34:29.638Z,2.60
2018-06-16T15:36:58.106Z,3.60
2018-06-16T15:39:26.557Z,3.23
2018-06-16T15:41:54.869Z,3.10
2018-06-16T15:44:23.115Z,5.03
2018-06-16T15:46:51.342Z,3.87
2018-06-16T15:49:19.649Z,3.63
2018-06-16T15:51:48.016Z,4.23
2018-06-16T15:54:16.348Z,3.50
2018-06-16T15:56:44.729Z,3.13
2018-06-16T15:59:13.104Z,3.43
2018-06-16T16:01:41.311Z,3.73
2018-06-16T16:04:09.673Z,3.40
2018-06-16T16:06:37.996Z,3.13
2018-06-16T16:09:06.898Z,3.60
2018-06-16T16:11:36.768Z,2.77
2018-06-16T16:14:05.143Z,3.47
2018-06-16T16:16:33.630Z,3.77
2018-06-16T16:19:01.972Z,3.53
2018-06-16T16:21:30.374Z,3.50
2018-06-16T16:23:58.747Z,3.33
2018-06-16T16:26:28.111Z,3.23
2018-06-16T16:28:56.555Z,3.40
2018-06-16T16:31:24.973Z,3.60
2018-06-16T16:33:53.356Z,3.43
2018-06-16T16:36:21.716Z,3.83
2018-06-16T16:38:50.213Z,3.77
2018-06-16T16:41:18.576Z,3.90
2018-06-16T16:43:47.050Z,3.33
2018-06-16T16:46:15.470Z,3.50
2018-06-16T16:48:43.750Z,3.67
2018-06-16T16:51:12.151Z,3.47
2018-06-16T16:53:40.538Z,3.80
2018-06-16T16:56:09.009Z,3.93
2018-06-16T16:58:37.352Z,3.27
2018-06-16T17:01:05.566Z,3.60
2018-06-16T17:03:33.971Z,3.97
2018-06-16T17:06:02.272Z,5.20
2018-06-16T17:08:30.604Z,4.30
2018-06-16T17:10:58.994Z,4.43
2018-06-16T17:13:27.356Z,3.87
2018-06-16T17:15:55.620Z,4.67
2018-06-16T17:18:23.976Z,4.93
2018-06-16T17:20:52.254Z,3.93
2018-06-16T17:23:20.521Z,4.30
2018-06-16T17:25:48.934Z,3.93
2018-06-16T17:28:17.187Z,4.53
2018-06-16T17:30:45.598Z,4.67
2018-06-16T17:33:13.850Z,4.53
2018-06-16T17:35:42.247Z,4.40
2018-06-16T17:38:10.603Z,4.07
2018-06-16T17:40:38.959Z,3.47
2018-06-16T17:43:07.490Z,4.77
2018-06-16T17:45:35.881Z,4.30
2018-06-16T17:48:04.274Z,4.07
2018-06-16T17:50:32.645Z,4.50
2018-06-16T17:53:01.011Z,4.20
2018-06-16T17:55:29.370Z,4.30
2018-06-16T17:57:57.769Z,5.03
2018-06-16T18:00:26.135Z,5.27
2018-06-16T18:02:54.472Z,5.00
2018-06-16T18:05:22.851Z,6.07
2018-06-16T18:07:51.442Z,5.83
2018-06-16T18:10:19.798Z,5.27
2018-06-16T18:12:48.207Z,5.80
2018-06-16T18:15:16.529Z,4.93
2018-06-16T18:17:44.956Z,5.33
2018-06-16T18:20:13.231Z,4.80
2018-06-16T18:22:41.649Z,4.83
2018-06-16T18:25:09.877Z,5.30
2018-06-16T18:27:38.280Z,7.70
2018-06-16T18:30:07.612Z,4.73
2018-06-16T18:32:35.982Z,7.03
2018-06-16T18:35:04.377Z,5.70
2018-06-16T18:37:32.756Z,7.20
2018-06-16T18:40:00.998Z,7.23
2018-06-16T18:42:29.337Z,7.40
2018-06-16T18:44:57.704Z,7.80
2018-06-16T18:47:26.095Z,7.63
2018-06-16T18:49:54.515Z,6.00
2018-06-16T18:52:22.758Z,11.77
2018-06-16T18:54:51.109Z,5.40
2018-06-16T18:57:19.540Z,6.10
2018-06-16T18:59:47.742Z,5.83
2018-06-16T19:02:16.074Z,6.13
2018-06-16T19:04:44.315Z,6.30
2018-06-16T19:07:12.651Z,7.50
2018-06-16T19:09:40.979Z,7.20
2018-06-16T19:12:09.353Z,7.07
2018-06-16T19:14:37.684Z,7.53
2018-06-16T19:17:06.101Z,7.10
2018-06-16T19:19:34.397Z,6.40
2018-06-16T19:22:02.627Z,8.13
2018-06-16T19:24:30.857Z,9.33
2018-06-16T19:26:59.194Z,6.40
2018-06-16T19:29:27.445Z,6.77
2018-06-16T19:31:55.727Z,5.13
2018-06-16T19:34:24.115Z,6.80
2018-06-16T19:36:52.518Z,6.30
2018-06-16T19:39:20.885Z,6.87
2018-06-16T19:41:49.270Z,5.50
2018-06-16T19:44:17.728Z,5.60
2018-06-16T19:46:46.121Z,6.60
2018-06-16T19:49:14.535Z,5.30
2018-06-16T19:51:42.818Z,6.27
2018-06-16T19:54:11.222Z,6.33
2018-06-16T19:56:39.583Z,6.37
2018-06-16T19:59:07.951Z,6.83
2018-06-16T20:01:36.318Z,5.67
2018-06-16T20:04:04.669Z,5.77
2018-06-16T20:06:32.937Z,7.67
2018-06-16T20:09:01.306Z,5.13
2018-06-16T20:11:29.613Z,5.60
2018-06-16T20:13:58.032Z,6.07
2018-06-16T20:16:26.392Z,5.60
2018-06-16T20:18:54.875Z,5.60
2018-06-16T20:21:23.283Z,8.00
2018-06-16T20:23:51.683Z,5.87
2018-06-16T20:26:20.065Z,7.70
2018-06-16T20:28:48.324Z,6.17
2018-06-16T20:31:16.625Z,6.77
2018-06-16T20:33:45.343Z,8.80
2018-06-16T20:36:13.725Z,7.17
2018-06-16T20:38:42.062Z,6.00
2018-06-16T20:41:10.280Z,8.00
2018-06-16T20:43:38.664Z,7.30
2018-06-16T20:46:06.890Z,8.30
2018-06-16T20:48:35.319Z,7.60
2018-06-16T20:51:03.733Z,8.70
2018-06-16T20:53:32.206Z,7.60
2018-06-16T20:56:00.635Z,7.80
2018-06-16T20:58:29.052Z,6.83
2018-06-16T21:00:57.369Z,6.13
2018-06-16T21:03:25.614Z,7.60
2018-06-16T21:05:53.917Z,6.70
2018-06-16T21:08:22.172Z,6.83
2018-06-16T21:10:50.406Z,7.87
2018-06-16T21:13:18.705Z,7.40
2018-06-16T21:15:46.928Z,10.23
2018-06-16T21:18:15.344Z,7.57
2018-06-16T21:20:43.690Z,9.53
2018-06-16T21:23:12.012Z,8.90
2018-06-16T21:25:40.483Z,10.40
2018-06-16T21:28:08.817Z,9.90
2018-06-16T21:30:37.053Z,8.20
2018-06-16T21:33:06.313Z,8.37
2018-06-16T21:35:34.638Z,8.20
2018-06-16T21:38:03.009Z,8.50
2018-06-16T21:40:31.371Z,6.73
2018-06-16T21:42:59.732Z,8.20
2018-06-16T21:45:27.984Z,7.10
2018-06-16T21:47:56.327Z,7.80
2018-06-16T21:50:24.551Z,7.90
2018-06-16T21:52:52.958Z,9.40
2018-06-16T21:55:21.264Z,9.67
2018-06-16T21:57:49.590Z,9.20
2018-06-16T22:00:17.977Z,7.10
2018-06-16T22:02:46.357Z,10.50
2018-06-16T22:05:14.776Z,10.83
2018-06-16T22:07:43.129Z,11.57
2018-06-16T22:10:11.579Z,9.50
2018-06-16T22:12:39.952Z,10.07
2018-06-16T22:15:08.206Z,11.33
2018-06-16T22:17:36.626Z,10.43
2018-06-16T22:20:05.168Z,10.27
2018-06-16T22:22:33.547Z,9.80
2018-06-16T22:25:01.900Z,10.43
2018-06-16T22:27:30.228Z,11.90
2018-06-16T22:29:58.621Z,9.20
2018-06-16T22:32:26.907Z,10.70
2018-06-16T22:34:55.333Z,11.13
2018-06-16T22:37:23.705Z,9.60
2018-06-16T22:39:52.087Z,10.40
2018-06-16T22:42:20.400Z,13.47
2018-06-16T22:44:48.810Z,12.47
2018-06-16T22:47:17.142Z,11.80
2018-06-16T22:49:45.488Z,12.40
2018-06-16T22:52:14.056Z,11.80
2018-06-16T22:54:42.446Z,11.10
2018-06-16T22:57:10.850Z,13.07
2018-06-16T22:59:39.244Z,11.30
2018-06-16T23:02:07.601Z,11.07
2018-06-16T23:04:35.983Z,12.20
2018-06-16T23:07:04.528Z,12.87
2018-06-16T23:09:32.841Z,10.10
2018-06-16T23:12:01.309Z,11.70
2018-06-16T23:14:29.758Z,9.57
2018-06-16T23:16:59.198Z,9.47
2018-06-16T23:19:27.453Z,12.23
2018-06-16T23:21:55.821Z,10.53
2018-06-16T23:24:24.176Z,10.20
2018-06-16T23:26:52.394Z,9.00
2018-06-16T23:29:20.755Z,9.13
2018-06-16T23:31:49.002Z,11.73
2018-06-16T23:34:17.406Z,11.27
2018-06-16T23:36:45.803Z,9.97
2018-06-16T23:39:15.130Z,9.60
2018-06-16T23:41:43.534Z,11.97
2018-06-16T23:44:11.887Z,8.07
2018-06-16T23:46:40.227Z,11.47
2018-06-16T23:49:08.615Z,13.10
2018-06-16T23:51:37.884Z,10.90
2018-06-16T23:54:06.415Z,12.27
2018-06-16T23:56:34.743Z,8.97
2018-06-16T23:59:03.043Z,10.23
